createdAt,value
2022-09-11T00:02:16.465Z,74.50
2022-09-11T00:04:43.203Z,74.20
2022-09-11T00:07:09.930Z,74.00
2022-09-11T00:09:36.743Z,73.80
2022-09-11T00:12:03.949Z,73.90
2022-09-11T00:14:30.678Z,74.00
2022-09-11T00:16:57.380Z,74.10
2022-09-11T00:19:24.085Z,74.20
2022-09-11T00:21:50.860Z,74.20
2022-09-11T00:24:17.770Z,74.40
2022-09-11T00:26:46.253Z,74.50
2022-09-11T00:29:12.980Z,74.70
2022-09-11T00:31:39.810Z,74.90
2022-09-11T00:34:07.291Z,75.00
2022-09-11T00:36:36.573Z,75.00
2022-09-11T00:39:03.518Z,75.30
2022-09-11T00:41:33.339Z,74.70
2022-09-11T00:44:03.275Z,74.40
2022-09-11T00:46:34.462Z,74.50
2022-09-11T00:49:02.508Z,74.50
2022-09-11T00:51:31.376Z,74.60
2022-09-11T00:53:58.126Z,74.70
2022-09-11T00:56:27.566Z,74.70
2022-09-11T00:58:54.862Z,74.90
2022-09-11T01:01:21.849Z,75.00
2022-09-11T01:03:48.877Z,75.00
2022-09-11T01:06:15.627Z,75.40
2022-09-11T01:08:43.341Z,75.50
2022-09-11T01:11:28.763Z,75.30
2022-09-11T01:13:57.307Z,75.90
2022-09-11T01:16:24.081Z,76.00
2022-09-11T01:18:56.809Z,75.40
2022-09-11T01:21:52.555Z,75.10
2022-09-11T01:24:46.973Z,75.00
2022-09-11T01:27:32.529Z,75.10
2022-09-11T01:30:01.908Z,75.30
2022-09-11T01:32:37.486Z,75.40
2022-09-11T01:35:12.767Z,75.50
2022-09-11T01:37:48.447Z,75.80
2022-09-11T01:40:20.863Z,75.80
2022-09-11T01:42:47.574Z,76.70
2022-09-11T01:45:16.172Z,76.20
2022-09-11T01:47:43.046Z,76.60
2022-09-11T01:50:10.836Z,76.80
2022-09-11T01:52:46.690Z,77.10
2022-09-11T01:55:15.812Z,77.00
2022-09-11T01:57:50.242Z,76.20
2022-09-11T02:00:16.985Z,75.70
2022-09-11T02:02:52.530Z,75.90
2022-09-11T02:05:25.723Z,75.80
2022-09-11T02:08:14.003Z,75.90
2022-09-11T02:10:43.314Z,77.00
2022-09-11T02:13:27.578Z,76.40
2022-09-11T02:15:56.719Z,76.70
2022-09-11T02:18:54.176Z,76.70
2022-09-11T02:21:20.947Z,76.70
2022-09-11T02:23:47.660Z,77.50
2022-09-11T02:26:14.408Z,77.00
2022-09-11T02:28:41.718Z,77.00
2022-09-11T02:31:08.551Z,76.80
2022-09-11T02:33:36.499Z,77.00
2022-09-11T02:36:28.120Z,77.00
2022-09-11T02:39:19.143Z,76.50
2022-09-11T02:42:16.826Z,76.40
2022-09-11T02:44:54.730Z,76.40
2022-09-11T02:47:39.953Z,76.50
2022-09-11T02:50:34.376Z,76.50
2022-09-11T02:53:10.680Z,76.60
2022-09-11T02:55:53.772Z,76.70
2022-09-11T02:58:30.702Z,77.00
2022-09-11T03:01:00.940Z,76.90
2022-09-11T03:03:27.701Z,77.20
2022-09-11T03:05:54.430Z,77.80
2022-09-11T03:08:21.158Z,78.20
2022-09-11T03:10:49.984Z,78.60
2022-09-11T03:13:16.772Z,77.00
2022-09-11T03:15:43.781Z,76.50
2022-09-11T03:18:11.856Z,76.60
2022-09-11T03:20:39.185Z,76.60
2022-09-11T03:23:08.311Z,76.60
2022-09-11T03:25:35.076Z,76.70
2022-09-11T03:28:04.075Z,76.90
2022-09-11T03:30:30.910Z,76.70
2022-09-11T03:32:58.437Z,76.90
2022-09-11T03:35:25.429Z,76.90
2022-09-11T03:37:52.131Z,77.60
2022-09-11T03:40:20.239Z,77.70
2022-09-11T03:42:47.224Z,78.40
2022-09-11T03:45:17.410Z,78.20
2022-09-11T03:47:44.203Z,78.40
2022-09-11T03:50:11.397Z,78.10
2022-09-11T03:52:38.302Z,77.10
2022-09-11T03:55:06.030Z,76.80
2022-09-11T03:57:36.439Z,76.70
2022-09-11T04:00:03.999Z,76.90
2022-09-11T04:02:31.792Z,76.80
2022-09-11T04:04:58.517Z,77.00
2022-09-11T04:07:25.796Z,77.00
2022-09-11T04:09:52.500Z,76.90
2022-09-11T04:12:19.589Z,77.00
2022-09-11T04:14:46.828Z,77.10
2022-09-11T04:17:13.532Z,77.80
2022-09-11T04:19:40.247Z,79.20
2022-09-11T04:22:06.948Z,78.30
2022-09-11T04:24:33.692Z,78.20
2022-09-11T04:27:01.062Z,78.20
2022-09-11T04:29:28.530Z,77.20
2022-09-11T04:31:56.210Z,76.90
2022-09-11T04:34:23.014Z,76.90
2022-09-11T04:36:49.816Z,77.00
2022-09-11T04:39:16.601Z,77.20
2022-09-11T04:41:44.491Z,77.40
2022-09-11T04:44:11.264Z,77.20
2022-09-11T04:46:38.287Z,77.50
2022-09-11T04:49:05.073Z,77.20
2022-09-11T04:51:33.322Z,78.20
2022-09-11T04:54:00.165Z,78.80
2022-09-11T04:56:31.605Z,78.00
2022-09-11T04:58:59.101Z,78.10
2022-09-11T05:01:26.875Z,77.60
2022-09-11T05:03:53.640Z,78.30
2022-09-11T05:06:20.393Z,77.30
2022-09-11T05:08:47.154Z,77.40
2022-09-11T05:11:17.150Z,77.30
2022-09-11T05:13:44.114Z,77.30
2022-09-11T05:16:12.405Z,78.10
2022-09-11T05:18:40.083Z,77.30
2022-09-11T05:21:13.840Z,77.40
2022-09-11T05:23:40.815Z,77.20
2022-09-11T05:26:14.027Z,77.20
2022-09-11T05:28:40.741Z,77.20
2022-09-11T05:31:15.792Z,77.50
2022-09-11T05:33:43.780Z,78.20
2022-09-11T05:36:10.853Z,77.30
2022-09-11T05:38:37.619Z,77.20
2022-09-11T05:41:06.346Z,77.30
2022-09-11T05:43:34.041Z,77.20
2022-09-11T05:46:00.930Z,77.30
2022-09-11T05:48:28.870Z,77.20
2022-09-11T05:50:59.662Z,77.20
2022-09-11T05:53:27.629Z,77.20
2022-09-11T05:55:55.082Z,77.50
2022-09-11T05:58:22.891Z,77.40
2022-09-11T06:00:49.935Z,77.50
2022-09-11T06:03:17.916Z,77.50
2022-09-11T06:05:44.634Z,77.70
2022-09-11T06:08:11.773Z,77.50
2022-09-11T06:10:46.412Z,77.80
2022-09-11T06:13:13.395Z,77.80
2022-09-11T06:15:47.295Z,77.80
2022-09-11T06:18:14.865Z,77.80
2022-09-11T06:20:41.852Z,78.20
2022-09-11T06:23:11.564Z,78.00
2022-09-11T06:25:38.867Z,77.90
2022-09-11T06:28:05.650Z,77.90
2022-09-11T06:30:33.497Z,77.80
2022-09-11T06:33:00.283Z,77.80
2022-09-11T06:35:26.981Z,77.50
2022-09-11T06:37:53.695Z,77.50
2022-09-11T06:40:20.582Z,77.70
2022-09-11T06:42:47.437Z,77.70
2022-09-11T06:45:14.194Z,77.80
2022-09-11T06:47:40.891Z,77.80
2022-09-11T06:50:07.904Z,78.00
2022-09-11T06:52:35.255Z,77.50
2022-09-11T06:55:02.324Z,75.30
2022-09-11T06:57:29.514Z,74.80
2022-09-11T06:59:59.375Z,75.00
2022-09-11T07:02:26.139Z,75.20
2022-09-11T07:04:53.399Z,75.70
2022-09-11T07:07:20.691Z,74.90
2022-09-11T07:09:47.648Z,74.60
2022-09-11T07:12:14.908Z,72.90
2022-09-11T07:14:41.619Z,72.60
2022-09-11T07:17:08.366Z,71.60
2022-09-11T07:19:35.852Z,71.00
2022-09-11T07:22:02.640Z,71.20
2022-09-11T07:24:29.357Z,69.50
2022-09-11T07:26:56.130Z,70.40
2022-09-11T07:29:22.878Z,70.20
2022-09-11T07:31:50.220Z,70.10
2022-09-11T07:34:17.193Z,70.40
2022-09-11T07:36:44.640Z,70.30
2022-09-11T07:39:11.603Z,70.90
2022-09-11T07:41:38.368Z,70.50
2022-09-11T07:44:06.552Z,69.30
2022-09-11T07:46:33.671Z,68.40
2022-09-11T07:49:02.027Z,68.80
2022-09-11T07:51:29.582Z,69.60
2022-09-11T07:53:56.658Z,69.40
2022-09-11T07:56:24.849Z,69.70
2022-09-11T07:58:52.439Z,69.30
2022-09-11T08:01:29.662Z,69.30
2022-09-11T08:04:06.855Z,70.40
2022-09-11T08:06:35.133Z,69.80
2022-09-11T08:09:09.660Z,70.00
2022-09-11T08:11:38.587Z,69.30
2022-09-11T08:14:05.549Z,71.50
2022-09-11T08:16:32.660Z,70.50
2022-09-11T08:18:59.441Z,72.70
2022-09-11T08:21:29.001Z,72.40
2022-09-11T08:23:55.718Z,70.30
2022-09-11T08:26:24.148Z,70.20
2022-09-11T08:28:52.174Z,69.60
2022-09-11T08:31:20.828Z,69.40
2022-09-11T08:33:48.199Z,69.80
2022-09-11T08:36:15.111Z,69.50
2022-09-11T08:38:42.877Z,69.30
2022-09-11T08:41:35.307Z,69.30
2022-09-11T08:44:08.888Z,69.10
2022-09-11T08:46:40.647Z,69.00
2022-09-11T08:49:22.937Z,68.90
2022-09-11T08:51:51.656Z,68.80
2022-09-11T08:54:33.416Z,68.70
2022-09-11T08:57:28.413Z,68.40
2022-09-11T09:00:20.382Z,68.50
2022-09-11T09:03:14.488Z,68.60
2022-09-11T09:05:46.200Z,68.60
2022-09-11T09:08:33.275Z,68.50
2022-09-11T09:11:14.530Z,68.40
2022-09-11T09:13:58.969Z,66.90
2022-09-11T09:16:42.350Z,65.80
2022-09-11T09:19:14.746Z,65.40
2022-09-11T09:21:59.306Z,64.50
2022-09-11T09:24:26.540Z,63.30
2022-09-11T09:26:56.221Z,62.50
2022-09-11T09:29:24.959Z,61.80
2022-09-11T09:31:53.830Z,62.10
2022-09-11T09:34:21.911Z,62.50
2022-09-11T09:37:18.001Z,62.80
2022-09-11T09:39:44.916Z,63.00
2022-09-11T09:42:39.585Z,62.90
2022-09-11T09:45:44.945Z,63.20
2022-09-11T09:48:11.905Z,66.00
2022-09-11T09:50:39.941Z,64.50
2022-09-11T09:53:24.708Z,64.30
2022-09-11T09:55:52.081Z,64.20
2022-09-11T09:58:18.939Z,64.30
2022-09-11T10:00:46.088Z,64.20
2022-09-11T10:03:23.392Z,66.00
2022-09-11T10:05:54.606Z,66.80
2022-09-11T10:08:27.730Z,66.60
2022-09-11T10:11:18.187Z,66.40
2022-09-11T10:13:53.387Z,66.30
2022-09-11T10:16:25.485Z,67.50
2022-09-11T10:18:53.254Z,66.30
2022-09-11T10:21:29.658Z,66.60
2022-09-11T10:23:58.346Z,66.70
2022-09-11T10:26:31.598Z,67.70
2022-09-11T10:29:09.068Z,67.40
2022-09-11T10:31:37.258Z,67.40
2022-09-11T10:34:04.124Z,68.40
2022-09-11T10:36:31.726Z,68.00
2022-09-11T10:38:59.490Z,67.60
2022-09-11T10:41:27.608Z,67.80
2022-09-11T10:44:00.439Z,67.80
2022-09-11T10:46:41.350Z,68.00
2022-09-11T10:49:26.535Z,68.10
2022-09-11T10:52:08.239Z,68.20
2022-09-11T10:55:00.136Z,67.50
2022-09-11T10:57:35.603Z,67.00
2022-09-11T11:00:17.267Z,66.80
2022-09-11T11:02:51.078Z,66.50
2022-09-11T11:05:27.167Z,66.30
2022-09-11T11:08:17.868Z,65.90
2022-09-11T11:11:03.897Z,65.50
2022-09-11T11:13:36.471Z,65.60
2022-09-11T11:16:25.200Z,65.30
2022-09-11T11:19:02.831Z,65.20
2022-09-11T11:22:01.320Z,64.60
2022-09-11T11:24:43.119Z,64.70
2022-09-11T11:27:29.038Z,64.30
2022-09-11T11:30:02.423Z,64.60
2022-09-11T11:33:01.697Z,64.30
2022-09-11T11:35:41.081Z,64.10
2022-09-11T11:38:16.376Z,63.70
2022-09-11T11:40:47.088Z,63.60
2022-09-11T11:43:17.554Z,63.30
2022-09-11T11:45:50.495Z,63.50
2022-09-11T11:48:27.159Z,63.50
2022-09-11T11:50:55.520Z,64.10
2022-09-11T11:53:50.696Z,63.40
2022-09-11T11:56:29.413Z,63.30
2022-09-11T11:59:19.965Z,62.90
2022-09-11T12:02:02.387Z,63.40
2022-09-11T12:04:53.755Z,63.10
2022-09-11T12:07:27.926Z,63.50
2022-09-11T12:09:55.660Z,63.60
2022-09-11T12:12:23.236Z,63.80
2022-09-11T12:14:54.587Z,64.50
2022-09-11T12:17:25.617Z,65.20
2022-09-11T12:20:10.978Z,65.20
2022-09-11T12:22:41.130Z,65.60
2022-09-11T12:25:35.603Z,66.00
2022-09-11T12:28:27.000Z,66.10
2022-09-11T12:30:58.038Z,66.20
2022-09-11T12:33:43.534Z,66.00
2022-09-11T12:36:19.162Z,66.30
2022-09-11T12:38:47.665Z,66.20
2022-09-11T12:41:17.348Z,65.20
2022-09-11T12:43:44.112Z,65.60
2022-09-11T12:46:37.114Z,65.10
2022-09-11T12:49:21.737Z,65.10
2022-09-11T12:51:59.549Z,64.10
2022-09-11T12:54:44.434Z,64.80
2022-09-11T12:57:40.865Z,65.10
2022-09-11T13:00:28.499Z,65.30
2022-09-11T13:02:55.689Z,65.40
2022-09-11T13:05:27.641Z,65.70
2022-09-11T13:07:56.893Z,65.80
2022-09-11T13:10:36.276Z,66.00
2022-09-11T13:13:12.261Z,66.00
2022-09-11T13:15:42.281Z,66.00
2022-09-11T13:18:24.082Z,65.70
2022-09-11T13:21:20.242Z,66.90
2022-09-11T13:23:48.929Z,67.10
2022-09-11T13:26:25.469Z,67.70
2022-09-11T13:28:54.464Z,68.00
2022-09-11T13:31:31.609Z,67.70
2022-09-11T13:33:58.348Z,68.00
2022-09-11T13:36:25.130Z,68.10
2022-09-11T13:38:57.459Z,68.10
2022-09-11T13:41:29.951Z,68.10
2022-09-11T13:44:00.717Z,68.20
2022-09-11T13:46:28.183Z,68.10
2022-09-11T13:49:02.187Z,68.40
2022-09-11T13:51:29.727Z,68.50
2022-09-11T13:54:07.570Z,68.60
2022-09-11T13:56:45.287Z,68.30
2022-09-11T13:59:34.070Z,68.50
2022-09-11T14:02:01.156Z,68.60
2022-09-11T14:04:33.169Z,68.70
2022-09-11T14:06:59.897Z,68.40
2022-09-11T14:09:26.613Z,68.40
2022-09-11T14:11:53.344Z,68.30
2022-09-11T14:14:26.165Z,68.60
2022-09-11T14:16:59.075Z,68.50
2022-09-11T14:19:30.185Z,68.60
2022-09-11T14:21:56.919Z,68.70
2022-09-11T14:24:34.077Z,68.70
2022-09-11T14:27:02.327Z,68.80
2022-09-11T14:29:32.978Z,68.80
2022-09-11T14:32:36.292Z,69.00
2022-09-11T14:35:06.533Z,69.00
2022-09-11T14:37:35.290Z,69.10
2022-09-11T14:40:06.464Z,69.00
2022-09-11T14:42:34.854Z,69.00
2022-09-11T14:45:09.364Z,69.20
2022-09-11T14:47:36.584Z,69.20
2022-09-11T14:50:03.488Z,69.30
2022-09-11T14:52:30.312Z,69.40
2022-09-11T14:54:57.101Z,69.50
2022-09-11T14:57:25.120Z,69.50
2022-09-11T14:59:52.472Z,69.60
2022-09-11T15:02:21.280Z,69.60
2022-09-11T15:04:48.399Z,69.60
2022-09-11T15:07:15.579Z,69.60
2022-09-11T15:09:42.654Z,69.60
2022-09-11T15:12:10.399Z,69.60
2022-09-11T15:14:56.852Z,69.80
2022-09-11T15:17:25.324Z,70.00
2022-09-11T15:19:52.813Z,71.70
2022-09-11T15:22:20.188Z,71.50
2022-09-11T15:24:47.233Z,71.10
2022-09-11T15:27:15.068Z,70.90
2022-09-11T15:29:42.805Z,71.40
2022-09-11T15:32:10.313Z,72.20
2022-09-11T15:34:38.738Z,71.30
2022-09-11T15:37:05.940Z,71.80
2022-09-11T15:39:33.999Z,71.90
2022-09-11T15:42:02.024Z,71.80
2022-09-11T15:44:29.495Z,72.80
2022-09-11T15:46:57.181Z,73.30
2022-09-11T15:49:24.198Z,72.10
2022-09-11T15:51:51.523Z,71.90
2022-09-11T15:54:19.215Z,71.90
2022-09-11T15:56:46.862Z,71.90
2022-09-11T15:59:15.301Z,71.90
2022-09-11T16:01:42.400Z,72.00
2022-09-11T16:04:10.826Z,72.70
2022-09-11T16:06:39.291Z,71.60
2022-09-11T16:09:07.885Z,71.40
2022-09-11T16:11:36.342Z,72.10
2022-09-11T16:14:03.150Z,71.60
2022-09-11T16:16:29.883Z,71.60
2022-09-11T16:18:59.310Z,72.10
2022-09-11T16:21:27.205Z,72.70
2022-09-11T16:24:00.742Z,73.30
2022-09-11T16:26:29.313Z,72.80
2022-09-11T16:28:56.545Z,73.10
2022-09-11T16:31:23.340Z,72.40
2022-09-11T16:33:50.319Z,72.40
2022-09-11T16:36:20.849Z,72.40
2022-09-11T16:38:48.358Z,72.30
2022-09-11T16:41:19.828Z,72.70
2022-09-11T16:43:48.037Z,72.30
2022-09-11T16:46:17.193Z,72.10
2022-09-11T16:48:44.323Z,72.70
2022-09-11T16:51:12.365Z,71.90
2022-09-11T16:53:39.249Z,72.00
2022-09-11T16:56:07.237Z,72.10
2022-09-11T16:58:36.813Z,72.00
2022-09-11T17:01:11.385Z,72.20
2022-09-11T17:03:41.410Z,72.30
2022-09-11T17:06:08.541Z,71.80
2022-09-11T17:08:35.611Z,71.80
2022-09-11T17:11:02.421Z,71.70
2022-09-11T17:13:29.809Z,71.80
2022-09-11T17:16:06.696Z,71.60
2022-09-11T17:18:33.529Z,71.60
2022-09-11T17:21:03.762Z,71.60
2022-09-11T17:23:32.023Z,71.40
2022-09-11T17:25:59.426Z,71.60
2022-09-11T17:28:26.560Z,72.80
2022-09-11T17:30:53.300Z,72.70
2022-09-11T17:33:20.081Z,71.80
2022-09-11T17:35:47.295Z,71.20
2022-09-11T17:38:14.003Z,70.90
2022-09-11T17:40:41.247Z,70.60
2022-09-11T17:43:07.965Z,70.40
2022-09-11T17:45:34.702Z,71.10
2022-09-11T17:48:01.653Z,71.60
2022-09-11T17:50:28.379Z,71.80
2022-09-11T17:52:55.132Z,71.60
2022-09-11T17:55:22.190Z,71.40
2022-09-11T17:57:52.759Z,71.30
2022-09-11T18:00:19.637Z,71.50
2022-09-11T18:02:49.542Z,71.40
2022-09-11T18:05:16.601Z,71.50
2022-09-11T18:07:43.329Z,71.60
2022-09-11T18:10:10.150Z,71.60
2022-09-11T18:12:36.863Z,72.10
2022-09-11T18:15:03.946Z,72.20
2022-09-11T18:17:30.677Z,72.30
2022-09-11T18:19:57.390Z,72.30
2022-09-11T18:22:24.187Z,72.20
2022-09-11T18:24:50.946Z,72.30
2022-09-11T18:27:19.904Z,73.30
2022-09-11T18:29:46.811Z,72.70
2022-09-11T18:32:13.585Z,72.70
2022-09-11T18:34:40.328Z,76.10
2022-09-11T18:37:07.798Z,76.80
2022-09-11T18:39:34.524Z,75.30
2022-09-11T18:42:01.495Z,76.30
2022-09-11T18:44:29.052Z,75.50
2022-09-11T18:46:55.987Z,75.90
2022-09-11T18:49:23.148Z,77.70
2022-09-11T18:51:50.190Z,76.60
2022-09-11T18:54:18.391Z,75.40
2022-09-11T18:56:45.707Z,76.40
2022-09-11T18:59:13.079Z,76.80
2022-09-11T19:01:41.409Z,78.20
2022-09-11T19:04:13.047Z,79.70
2022-09-11T19:06:40.114Z,80.30
2022-09-11T19:09:10.503Z,80.00
2022-09-11T19:11:37.571Z,80.70
2022-09-11T19:14:06.406Z,79.40
2022-09-11T19:16:33.945Z,79.70
2022-09-11T19:19:00.711Z,78.90
2022-09-11T19:21:27.593Z,78.80
2022-09-11T19:23:55.946Z,78.70
2022-09-11T19:26:27.395Z,77.80
2022-09-11T19:28:55.859Z,77.70
2022-09-11T19:31:28.477Z,77.50
2022-09-11T19:33:56.600Z,78.00
2022-09-11T19:36:26.768Z,77.80
2022-09-11T19:38:55.850Z,77.60
2022-09-11T19:41:23.809Z,77.50
2022-09-11T19:43:50.832Z,77.80
2022-09-11T19:46:18.317Z,79.70
2022-09-11T19:48:45.572Z,79.60
2022-09-11T19:51:17.318Z,78.90
2022-09-11T19:53:44.406Z,78.90
2022-09-11T19:56:11.954Z,78.70
2022-09-11T19:58:38.936Z,78.30
2022-09-11T20:01:08.979Z,77.90
2022-09-11T20:03:40.012Z,77.60
2022-09-11T20:06:07.046Z,77.50
2022-09-11T20:08:34.652Z,77.20
2022-09-11T20:11:03.179Z,77.00
2022-09-11T20:13:30.203Z,76.90
2022-09-11T20:16:05.393Z,76.90
2022-09-11T20:18:32.347Z,77.00
2022-09-11T20:21:03.656Z,76.80
2022-09-11T20:23:30.629Z,77.90
2022-09-11T20:26:17.045Z,77.50
2022-09-11T20:28:47.054Z,77.20
2022-09-11T20:31:17.906Z,76.80
2022-09-11T20:33:45.096Z,76.70
2022-09-11T20:36:12.614Z,76.80
2022-09-11T20:38:39.469Z,77.30
2022-09-11T20:41:10.885Z,78.00
2022-09-11T20:43:37.807Z,78.50
2022-09-11T20:46:05.183Z,78.10
2022-09-11T20:48:32.000Z,78.20
2022-09-11T20:51:06.703Z,78.40
2022-09-11T20:53:33.871Z,78.40
2022-09-11T20:56:04.335Z,78.50
2022-09-11T20:58:31.179Z,78.80
2022-09-11T21:00:57.936Z,78.80
2022-09-11T21:03:25.370Z,78.60
2022-09-11T21:05:52.342Z,78.50
2022-09-11T21:08:19.120Z,78.40
2022-09-11T21:10:45.880Z,78.40
2022-09-11T21:13:12.644Z,78.40
2022-09-11T21:15:43.710Z,78.30
2022-09-11T21:18:10.741Z,78.40
2022-09-11T21:20:37.753Z,78.30
2022-09-11T21:23:04.738Z,78.30
2022-09-11T21:25:32.107Z,78.30
2022-09-11T21:27:58.872Z,78.40
2022-09-11T21:30:25.660Z,78.40
2022-09-11T21:32:52.620Z,78.40
2022-09-11T21:35:19.375Z,78.40
2022-09-11T21:37:46.103Z,78.40
2022-09-11T21:40:13.695Z,78.40
2022-09-11T21:42:40.455Z,78.30
2022-09-11T21:45:08.162Z,78.30
2022-09-11T21:47:34.888Z,78.80
2022-09-11T21:50:02.872Z,79.00
2022-09-11T21:52:29.772Z,78.80
2022-09-11T21:54:56.487Z,78.80
2022-09-11T21:57:23.297Z,78.80
2022-09-11T21:59:50.048Z,78.40
2022-09-11T22:02:17.872Z,78.40
2022-09-11T22:04:44.696Z,78.30
2022-09-11T22:07:12.319Z,78.50
2022-09-11T22:09:40.589Z,78.70
2022-09-11T22:12:07.389Z,78.90
2022-09-11T22:14:34.257Z,78.80
2022-09-11T22:17:00.958Z,78.90
2022-09-11T22:19:27.755Z,78.80
2022-09-11T22:21:54.852Z,78.90
2022-09-11T22:24:21.733Z,79.00
2022-09-11T22:26:48.475Z,79.80
2022-09-11T22:29:15.221Z,78.90
2022-09-11T22:31:42.001Z,79.20
2022-09-11T22:34:09.686Z,79.50
2022-09-11T22:36:36.478Z,79.40
2022-09-11T22:39:05.383Z,79.40
2022-09-11T22:41:32.172Z,79.10
2022-09-11T22:43:58.925Z,78.80
2022-09-11T22:46:26.836Z,78.80
2022-09-11T22:48:54.375Z,78.60
2022-09-11T22:51:21.122Z,78.60
2022-09-11T22:53:48.460Z,78.60
2022-09-11T22:56:15.455Z,78.80
2022-09-11T22:58:42.645Z,78.90
2022-09-11T23:01:10.339Z,78.80
2022-09-11T23:03:37.419Z,78.90
2022-09-11T23:06:23.914Z,79.10
2022-09-11T23:08:50.713Z,79.20
2022-09-11T23:11:19.926Z,79.20
2022-09-11T23:13:48.453Z,79.20
2022-09-11T23:16:18.231Z,79.30
2022-09-11T23:18:45.326Z,79.50
2022-09-11T23:21:12.175Z,80.20
2022-09-11T23:23:42.678Z,79.90
2022-09-11T23:26:12.848Z,79.60
2022-09-11T23:28:39.564Z,79.30
2022-09-11T23:31:17.627Z,80.30
2022-09-11T23:33:44.668Z,80.60
2022-09-11T23:36:12.647Z,81.50
2022-09-11T23:38:39.489Z,81.60
2022-09-11T23:41:06.747Z,82.50
2022-09-11T23:43:33.491Z,83.40
2022-09-11T23:46:00.273Z,83.80
2022-09-11T23:48:27.151Z,83.90
2022-09-11T23:50:53.870Z,84.00
2022-09-11T23:53:20.575Z,83.90
2022-09-11T23:55:50.432Z,82.80
2022-09-11T23:58:17.481Z,82.40
